Time;durP1;ratioP1;P1;durP2;ratioP2;P2;SDS_P1;SDS_P2;PMS_P1;PMS_P2;Temp;Humidity;BMP_temperature;BMP_pressure;BME280_temperature;BME280_humidity;BME280_pressure;Samples;Min_cycle;Max_cycle;Signal;HPM_P1;HPM_P2
2022/07/03 00:00:43;;;;;;;20.08;15.70;;;;;;;19.07;99.20;98012.97;10413577;28;20430;-61
2022/07/03 00:05:43;;;;;;;22.60;17.60;;;;;;;18.92;100.00;98016.06;10418145;28;20088;-61
2022/07/03 00:10:41;;;;;;;22.80;17.02;;;;;;;18.73;100.00;97998.19;10383605;28;20057;-61
2022/07/03 00:15:40;;;;;;;22.40;17.63;;;;;;;18.86;99.59;98001.34;10379406;28;20025;-61
2022/07/03 00:20:45;;;;;;;22.05;18.90;;;;;;;18.97;99.11;98007.13;10379326;28;20361;-61
2022/07/03 00:25:44;;;;;;;22.38;17.90;;;;;;;18.87;99.96;98003.06;10378916;28;20064;-61
2022/07/03 00:30:47;;;;;;;20.42;15.55;;;;;;;18.66;100.00;97998.41;10379762;28;20067;-60
2022/07/03 00:35:49;;;;;;;24.70;15.95;;;;;;;18.64;100.00;97992.34;10378641;28;20071;-61
2022/07/03 00:40:48;;;;;;;21.20;16.13;;;;;;;18.53;99.38;97977.75;10378229;28;20065;-61
2022/07/03 00:45:49;;;;;;;23.73;15.77;;;;;;;18.51;99.66;97981.34;10377932;28;20535;-61
2022/07/03 00:50:50;;;;;;;21.48;17.05;;;;;;;18.48;99.57;97984.91;10377540;28;20072;-61
2022/07/03 00:55:52;;;;;;;20.85;15.00;;;;;;;18.16;100.00;97993.72;10377297;28;20072;-61
2022/07/03 01:00:53;;;;;;;18.75;14.48;;;;;;;17.75;100.00;97983.38;10377663;28;20061;-61
2022/07/03 01:05:54;;;;;;;20.20;14.38;;;;;;;17.68;100.00;97991.44;10377309;28;20107;-61
2022/07/03 01:11:07;;;;;;;20.17;15.40;;;;;;;17.63;100.00;97974.97;10416099;28;20067;-61
2022/07/03 01:16:15;;;;;;;21.55;15.65;;;;;;;17.81;100.00;97992.88;10417805;28;20059;-61
2022/07/03 01:21:48;;;;;;;23.45;16.08;;;;;;;17.90;100.00;97991.78;10418220;28;20060;-61
2022/07/03 01:26:55;;;;;;;19.33;15.55;;;;;;;17.78;100.00;97966.72;10417795;28;20453;-61
2022/07/03 01:31:55;;;;;;;22.23;16.38;;;;;;;17.94;100.00;97989.03;10417582;28;20060;-61
2022/07/03 01:36:54;;;;;;;21.48;16.67;;;;;;;17.94;100.00;97975.91;10417231;28;20060;-61
2022/07/03 01:41:55;;;;;;;20.75;16.45;;;;;;;17.98;100.00;97968.81;10417282;28;20052;-61
2022/07/03 01:46:58;;;;;;;20.08;16.70;;;;;;;17.90;100.00;97944.53;10417099;28;20463;-60
2022/07/03 01:51:58;;;;;;;25.20;17.98;;;;;;;18.05;100.00;97974.75;10417210;28;20056;-60
2022/07/03 01:57:00;;;;;;;22.55;17.52;;;;;;;18.04;100.00;97976.53;10416376;28;20063;-60
2022/07/03 02:02:22;;;;;;;23.65;16.80;;;;;;;18.09;100.00;97966.75;10415945;28;20060;-60
2022/07/03 02:07:36;;;;;;;22.20;17.85;;;;;;;18.12;100.00;97969.28;10406172;28;20080;-61
2022/07/03 02:12:44;;;;;;;22.17;18.25;;;;;;;18.08;100.00;97969.41;10373958;28;20075;-60
2022/07/03 02:17:46;;;;;;;23.70;18.13;;;;;;;18.02;100.00;97978.31;10374840;28;20064;-61
2022/07/03 02:22:57;;;;;;;27.63;18.25;;;;;;;17.96;100.00;97965.34;10373966;28;20064;-61
2022/07/03 02:28:22;;;;;;;22.38;17.30;;;;;;;18.00;100.00;97969.63;10373994;28;20056;-61
2022/07/03 02:33:26;;;;;;;24.65;17.95;;;;;;;18.00;100.00;97982.75;10374316;28;20511;-61
2022/07/03 02:38:27;;;;;;;24.83;18.25;;;;;;;17.96;100.00;97981.09;10373150;28;20072;-61
2022/07/03 02:43:46;;;;;;;21.65;17.42;;;;;;;17.99;100.00;97983.66;10374083;28;20065;-61
2022/07/03 02:48:50;;;;;;;19.77;16.08;;;;;;;17.80;100.00;97971.91;10373144;28;20069;-61
2022/07/03 02:54:13;;;;;;;23.45;17.38;;;;;;;17.74;100.00;97992.16;10373786;28;20064;-61
2022/07/03 02:59:36;;;;;;;20.83;15.90;;;;;;;17.68;100.00;98001.94;10374279;28;20065;-61
2022/07/03 03:04:43;;;;;;;22.25;17.85;;;;;;;17.68;100.00;98000.19;10373314;28;20064;-61
2022/07/03 03:09:45;;;;;;;26.10;18.42;;;;;;;17.65;100.00;98000.25;10402655;28;20072;-61
2022/07/03 03:34:57;;;;;;;21.40;17.83;;;;;;;17.84;100.00;98007.69;10453092;27;20409;-59
2022/07/03 03:39:58;;;;;;;20.00;16.50;;;;;;;18.01;100.00;98002.88;10453278;28;20715;-61
2022/07/03 03:44:57;;;;;;;22.42;16.80;;;;;;;18.22;100.00;97998.78;10452420;28;20075;-61
2022/07/03 03:49:56;;;;;;;20.10;16.02;;;;;;;18.25;100.00;97997.84;10452527;28;20055;-61
2022/07/03 03:54:55;;;;;;;21.10;15.75;;;;;;;18.23;100.00;97999.66;10452439;28;20032;-61
2022/07/03 03:59:55;;;;;;;23.30;16.08;;;;;;;18.23;100.00;98002.28;10451944;28;20513;-61
2022/07/03 04:04:54;;;;;;;24.85;16.27;;;;;;;18.46;100.00;98001.63;10450227;28;20078;-61
2022/07/03 04:09:53;;;;;;;20.65;16.77;;;;;;;18.54;100.00;97997.00;10451188;28;20115;-61
2022/07/03 04:14:52;;;;;;;22.42;17.70;;;;;;;18.67;100.00;97984.38;10450080;28;20051;-63
2022/07/03 04:19:51;;;;;;;23.02;16.85;;;;;;;18.90;99.24;98002.97;10451411;28;20043;-61
2022/07/03 04:24:50;;;;;;;21.02;16.40;;;;;;;18.93;98.43;97992.34;10450395;28;20064;-61
2022/07/03 04:29:49;;;;;;;21.10;16.10;;;;;;;19.01;98.01;98006.09;10450561;28;20054;-61
2022/07/03 04:34:48;;;;;;;23.30;16.42;;;;;;;19.05;97.76;97990.25;10428980;28;20246;-61
2022/07/03 04:39:47;;;;;;;19.75;16.27;;;;;;;19.31;97.08;97998.16;10421526;28;20045;-61
2022/07/03 04:44:46;;;;;;;24.65;17.80;;;;;;;19.54;96.39;97986.03;10420761;28;20055;-61
2022/07/03 04:49:45;;;;;;;19.63;15.50;;;;;;;19.79;95.41;97992.22;10420446;28;20028;-61
2022/07/03 04:54:44;;;;;;;19.58;15.65;;;;;;;19.90;94.18;97990.97;10422193;28;20558;-61
2022/07/03 04:59:43;;;;;;;18.98;15.18;;;;;;;20.01;93.26;98002.00;10422043;28;20402;-61
2022/07/03 05:04:42;;;;;;;24.80;16.20;;;;;;;19.83;92.87;98004.34;10420943;28;20520;-61
2022/07/03 05:09:41;;;;;;;21.35;16.98;;;;;;;19.68;93.81;98002.25;10421251;28;20040;-61
2022/07/03 05:14:40;;;;;;;19.92;16.75;;;;;;;19.75;93.70;98006.41;10417318;28;20052;-61
2022/07/03 05:19:39;;;;;;;22.25;16.80;;;;;;;19.49;94.77;98006.41;10420757;28;20047;-61
2022/07/03 05:24:38;;;;;;;20.77;17.23;;;;;;;19.61;94.89;98009.50;10421394;28;20060;-61
2022/07/03 05:29:37;;;;;;;19.60;16.88;;;;;;;19.71;94.10;98007.41;10420109;28;20068;-61
2022/07/03 05:34:35;;;;;;;23.25;18.42;;;;;;;19.94;94.06;98009.25;10420116;28;20410;-61
2022/07/03 05:39:35;;;;;;;21.55;17.08;;;;;;;20.28;93.35;98014.22;10414274;28;20123;-61
2022/07/03 05:44:34;;;;;;;20.92;17.33;;;;;;;20.46;92.09;98025.88;10418147;28;20056;-61
2022/07/03 05:49:33;;;;;;;22.10;17.20;;;;;;;20.63;91.27;98022.63;10418355;28;20107;-61
2022/07/03 05:54:32;;;;;;;26.33;18.30;;;;;;;20.73;90.78;98027.53;10418317;28;20020;-61
2022/07/03 05:59:31;;;;;;;23.35;18.65;;;;;;;20.93;90.63;98025.00;10418178;28;20047;-61
2022/07/03 06:04:30;;;;;;;21.95;17.90;;;;;;;21.19;89.59;98023.97;10417773;28;20028;-61
2022/07/03 06:09:29;;;;;;;20.35;16.95;;;;;;;21.45;88.93;98025.63;10417761;28;20406;-61
2022/07/03 06:14:28;;;;;;;21.75;16.15;;;;;;;21.66;87.69;98029.16;10418152;28;20370;-61
2022/07/03 06:19:27;;;;;;;22.52;16.15;;;;;;;21.72;85.44;98028.06;10417985;28;20476;-61
2022/07/03 06:24:26;;;;;;;18.85;16.17;;;;;;;21.58;84.79;98031.25;10417736;28;20062;-61
2022/07/03 06:29:25;;;;;;;21.75;15.85;;;;;;;21.80;84.52;98030.34;10416633;28;20047;-61
2022/07/03 06:34:24;;;;;;;20.27;16.63;;;;;;;22.05;82.89;98032.88;10417128;28;20068;-61
2022/07/03 06:39:23;;;;;;;18.80;16.00;;;;;;;22.08;83.80;98035.38;10417140;28;20032;-61
2022/07/03 06:44:22;;;;;;;20.38;15.77;;;;;;;22.18;83.12;98042.00;10416907;28;20036;-61
2022/07/03 06:49:21;;;;;;;17.60;15.45;;;;;;;22.23;82.33;98039.16;10417071;28;20081;-61
2022/07/03 06:54:20;;;;;;;17.60;15.65;;;;;;;22.42;81.29;98031.25;10416941;28;20056;-61
2022/07/03 06:59:19;;;;;;;19.98;15.77;;;;;;;22.68;80.57;98030.94;10416766;28;20035;-61
2022/07/03 07:04:18;;;;;;;21.00;15.93;;;;;;;22.76;80.18;98034.13;10416903;28;20482;-61
2022/07/03 07:09:17;;;;;;;17.48;14.40;;;;;;;22.76;79.45;98030.59;10416646;28;20543;-61
2022/07/03 07:14:16;;;;;;;18.70;13.82;;;;;;;22.66;79.86;98030.13;10416497;28;20475;-61
2022/07/03 07:19:15;;;;;;;18.67;15.27;;;;;;;22.71;80.10;98030.78;10416677;28;20462;-61
2022/07/03 07:24:14;;;;;;;18.90;16.02;;;;;;;22.49;80.97;97990.38;10416281;28;20058;-61
2022/07/03 07:29:13;;;;;;;18.95;15.60;;;;;;;22.56;81.53;98015.63;10416455;28;20503;-61
2022/07/03 07:34:13;;;;;;;18.05;15.60;;;;;;;22.36;82.60;98012.06;10415917;28;20493;-61
2022/07/03 07:39:12;;;;;;;19.33;16.02;;;;;;;22.51;82.21;98009.69;10416005;28;20075;-61
2022/07/03 07:44:11;;;;;;;19.50;15.60;;;;;;;22.62;81.67;98012.69;10414869;28;20072;-61
2022/07/03 07:49:09;;;;;;;19.58;15.32;;;;;;;22.80;81.04;98003.94;10416071;28;20044;-61
2022/07/03 07:54:08;;;;;;;18.92;15.23;;;;;;;23.00;80.04;98012.75;10415230;28;20107;-61
2022/07/03 07:59:07;;;;;;;17.83;15.27;;;;;;;23.05;79.76;98013.38;10415816;28;20028;-61
2022/07/03 08:09:24;;;;;;;20.77;14.52;;;;;;;23.23;77.91;98004.56;10420385;28;20068;-61
2022/07/03 08:14:23;;;;;;;17.48;13.25;;;;;;;23.68;78.44;98004.16;10422895;28;20029;-61
2022/07/03 08:19:22;;;;;;;16.85;12.98;;;;;;;24.05;74.92;97988.13;10422653;28;20035;-61
2022/07/03 08:24:20;;;;;;;15.82;13.80;;;;;;;24.02;72.89;98006.81;10422606;28;20547;-61
2022/07/03 08:29:19;;;;;;;17.13;14.32;;;;;;;24.37;72.71;97995.34;10422563;28;20191;-61
2022/07/03 08:34:18;;;;;;;15.55;13.32;;;;;;;24.80;70.19;97998.31;10422215;28;20048;-62
2022/07/03 08:39:17;;;;;;;18.20;13.85;;;;;;;25.04;68.71;98001.47;10422246;28;20063;-62
2022/07/03 08:44:18;;;;;;;16.38;13.68;;;;;;;25.22;66.50;97983.63;10420715;28;20075;-62
2022/07/03 08:49:19;;;;;;;14.15;12.65;;;;;;;25.61;66.54;97988.47;10422281;28;20480;-62
2022/07/03 08:54:18;;;;;;;15.35;13.38;;;;;;;25.99;65.97;97993.31;10421551;28;20064;-62
2022/07/03 08:59:19;;;;;;;17.17;13.35;;;;;;;26.20;64.79;97983.22;10421452;28;20533;-61
2022/07/03 09:04:18;;;;;;;16.42;13.27;;;;;;;26.71;64.44;97980.94;10421193;28;20505;-62
2022/07/03 09:09:17;;;;;;;15.45;13.35;;;;;;;27.06;61.85;97972.53;10419935;28;20040;-62
2022/07/03 09:14:16;;;;;;;15.90;12.35;;;;;;;27.59;60.94;97968.19;10420783;28;20119;-62
2022/07/03 09:19:42;;;;;;;16.25;12.65;;;;;;;28.09;57.02;97963.06;10419291;28;20075;-61
2022/07/03 09:24:41;;;;;;;16.42;12.45;;;;;;;27.49;55.65;97966.22;10420398;28;20067;-61
2022/07/03 09:29:51;;;;;;;14.95;11.85;;;;;;;27.73;57.33;97972.59;10420132;28;20047;-60
2022/07/03 09:35:09;;;;;;;10.95;9.68;;;;;;;27.70;53.43;97962.13;10418733;28;20495;-60
2022/07/03 09:40:09;;;;;;;14.73;11.48;;;;;;;27.90;54.32;97958.09;10419799;28;20072;-60
2022/07/03 09:45:08;;;;;;;11.93;10.73;;;;;;;28.21;54.65;97954.19;10419207;28;20060;-60
2022/07/03 09:50:11;;;;;;;13.40;10.70;;;;;;;28.21;50.37;97948.84;10419347;28;20060;-60
2022/07/03 09:55:10;;;;;;;9.55;8.55;;;;;;;28.67;47.50;97950.13;10419484;28;20514;-60
2022/07/03 10:00:13;;;;;;;12.52;9.65;;;;;;;28.99;50.20;97931.78;10418668;28;20471;-60
2022/07/03 10:05:12;;;;;;;10.95;9.65;;;;;;;29.18;48.05;97941.06;10418816;28;20331;-60
2022/07/03 10:10:11;;;;;;;11.40;10.20;;;;;;;29.36;49.20;97929.03;10418308;28;20055;-60
2022/07/03 10:15:11;;;;;;;10.75;9.63;;;;;;;29.06;48.25;97922.34;10418006;28;20034;-60
2022/07/03 10:20:14;;;;;;;11.20;9.50;;;;;;;29.09;46.82;97929.28;10418073;28;20067;-60
2022/07/03 10:25:14;;;;;;;11.43;8.70;;;;;;;29.43;45.96;97919.59;10417964;28;20454;-60
2022/07/03 10:30:18;;;;;;;11.32;9.18;;;;;;;29.79;45.82;97909.75;10417062;28;20064;-60
2022/07/03 10:35:24;;;;;;;10.35;8.75;;;;;;;30.24;46.38;97909.84;10417671;28;20060;-60
2022/07/03 10:46:11;;;;;;;9.98;8.98;;;;;;;30.30;44.81;97893.28;10417269;28;20063;-60
2022/07/03 10:51:13;;;;;;;10.38;9.38;;;;;;;30.88;43.22;97887.75;10417246;28;20063;-60
2022/07/03 10:56:12;;;;;;;9.50;8.50;;;;;;;31.01;41.49;97887.63;10417071;28;20074;-61
2022/07/03 11:01:39;;;;;;;9.55;8.60;;;;;;;30.98;41.88;97844.13;10417029;28;20052;-61
2022/07/03 11:06:44;;;;;;;11.77;8.90;;;;;;;31.33;41.94;97870.66;10414470;28;20126;-60
2022/07/03 11:11:56;;;;;;;11.65;9.15;;;;;;;31.35;42.46;97869.56;10416692;28;20045;-60
2022/07/03 11:17:21;;;;;;;10.50;8.43;;;;;;;30.92;39.21;97861.56;10416666;28;20067;-61
2022/07/03 11:22:24;;;;;;;11.70;8.18;;;;;;;30.21;40.65;97859.22;10416623;28;20814;-60
2022/07/03 11:27:24;;;;;;;9.25;8.18;;;;;;;29.93;42.21;97857.88;10416546;28;20064;-60
2022/07/03 11:32:47;;;;;;;9.05;8.13;;;;;;;29.66;41.02;97844.78;10416001;28;20083;-60
2022/07/03 11:37:46;;;;;;;8.80;7.90;;;;;;;29.93;43.17;97836.47;10414736;28;20072;-60
2022/07/03 11:42:45;;;;;;;11.88;8.57;;;;;;;30.48;44.07;97847.28;10417848;28;20363;-61
2022/07/03 11:47:44;;;;;;;9.35;7.97;;;;;;;30.92;42.36;97840.97;10424219;28;20111;-60
2022/07/03 11:52:43;;;;;;;9.20;7.90;;;;;;;31.32;40.12;97826.06;10424526;28;20078;-61
2022/07/03 11:57:49;;;;;;;9.13;7.97;;;;;;;31.78;43.08;97822.16;10423851;28;20103;-61
2022/07/03 12:02:49;;;;;;;9.50;8.02;;;;;;;32.11;40.44;97817.53;10423739;28;20063;-61
2022/07/03 12:08:02;;;;;;;9.68;8.68;;;;;;;32.09;38.48;97804.25;10423719;28;20525;-60
2022/07/03 12:13:01;;;;;;;11.15;8.70;;;;;;;32.29;40.14;97809.66;10423250;28;20044;-61
2022/07/03 12:18:00;;;;;;;9.10;8.30;;;;;;;32.66;39.81;97815.28;10423104;28;20090;-60
2022/07/03 12:22:59;;;;;;;10.38;8.05;;;;;;;33.10;40.36;97807.72;10422725;28;20020;-61
2022/07/03 12:27:58;;;;;;;8.02;7.15;;;;;;;33.51;38.50;97802.13;10422592;28;20499;-61
2022/07/03 12:32:57;;;;;;;8.13;6.55;;;;;;;33.82;36.31;97787.47;10422257;28;20499;-61
2022/07/03 12:37:57;;;;;;;9.05;7.63;;;;;;;33.97;38.61;97790.53;10422331;28;20070;-61
2022/07/03 12:42:58;;;;;;;10.20;8.02;;;;;;;34.02;37.90;97790.09;10421793;28;20059;-61
2022/07/03 12:48:02;;;;;;;7.53;6.65;;;;;;;33.88;38.37;97794.09;10422171;28;20070;-62
2022/07/03 12:53:01;;;;;;;8.55;7.13;;;;;;;33.47;38.87;97782.75;10421196;28;20063;-61
2022/07/03 13:03:38;;;;;;;;;;;;;;;32.49;39.73;97781.03;10421807;28;20056;-61
2022/07/03 13:08:37;;;;;;;9.10;7.10;;;;;;;32.08;41.07;97780.19;10421207;28;19912;-61
2022/07/03 13:13:49;;;;;;;8.60;6.88;;;;;;;31.71;42.28;97778.03;10421010;28;20021;-61
2022/07/03 13:19:01;;;;;;;8.80;6.97;;;;;;;31.62;43.14;97778.88;10420683;28;20056;-61
2022/07/03 13:24:00;;;;;;;8.63;7.60;;;;;;;31.77;43.86;97782.88;10419215;28;20067;-62
2022/07/03 13:28:59;;;;;;;8.65;7.05;;;;;;;32.32;43.67;97786.09;10420338;28;20482;-61
2022/07/03 13:33:58;;;;;;;10.65;7.15;;;;;;;32.86;41.25;97781.22;10420209;28;20520;-61
2022/07/03 13:38:58;;;;;;;7.95;7.15;;;;;;;33.04;40.69;97787.59;10419810;28;20067;-61
2022/07/03 13:43:57;;;;;;;8.40;7.60;;;;;;;33.06;38.72;97769.44;10419872;28;20565;-60
2022/07/03 13:48:56;;;;;;;8.55;6.82;;;;;;;33.05;39.26;97772.31;10418121;28;20135;-60
2022/07/03 13:53:55;;;;;;;8.25;7.45;;;;;;;32.84;40.21;97756.34;10416556;28;20062;-61
2022/07/03 13:58:55;;;;;;;8.88;7.72;;;;;;;32.95;42.03;97752.63;10398717;28;20485;-61
2022/07/03 14:03:54;;;;;;;7.97;7.18;;;;;;;32.96;41.21;97749.81;10411146;28;20059;-60
2022/07/03 14:08:53;;;;;;;8.68;7.28;;;;;;;33.04;41.25;97744.56;10417340;28;20028;-60
2022/07/03 14:13:52;;;;;;;7.97;6.88;;;;;;;33.23;39.34;97735.66;10412444;28;20136;-60
2022/07/03 14:18:51;;;;;;;11.13;7.10;;;;;;;33.20;39.58;97738.63;10418231;28;20055;-60
2022/07/03 14:23:50;;;;;;;9.18;7.25;;;;;;;33.24;39.46;97731.97;10403736;28;20442;-60
2022/07/03 14:34:06;;;;;;;8.18;7.38;;;;;;;33.33;37.39;97734.78;10416929;28;20068;-61
2022/07/03 14:39:05;;;;;;;8.07;7.28;;;;;;;33.40;37.33;97727.84;10416886;28;20064;-61
2022/07/03 14:44:04;;;;;;;8.40;6.70;;;;;;;33.47;37.34;97731.63;10416594;28;20028;-61
2022/07/03 14:49:03;;;;;;;8.68;7.00;;;;;;;33.53;36.86;97720.25;10417243;28;20111;-61
2022/07/03 14:54:02;;;;;;;8.60;7.70;;;;;;;33.43;37.39;97732.91;10416272;28;20031;-61
2022/07/03 14:59:07;;;;;;;7.78;6.97;;;;;;;33.06;37.12;97728.28;10416666;28;20059;-61
2022/07/03 15:04:25;;;;;;;8.82;7.28;;;;;;;32.61;39.49;97732.41;10416938;28;20048;-61
2022/07/03 15:09:32;;;;;;;41.90;13.48;;;;;;;32.25;40.05;97724.97;10414929;28;20086;-61
2022/07/03 15:14:33;;;;;;;23.25;9.52;;;;;;;32.05;40.14;97719.59;10414992;28;20055;-61
2022/07/03 15:19:35;;;;;;;95.15;18.65;;;;;;;31.87;40.81;97723.88;10416634;28;20510;-62
2022/07/03 15:24:36;;;;;;;18.33;9.50;;;;;;;31.92;41.27;97721.63;10415698;28;20060;-61
2022/07/03 15:29:35;;;;;;;11.38;7.72;;;;;;;31.85;39.91;97740.13;10415953;28;20541;-61
2022/07/03 15:34:37;;;;;;;13.10;7.30;;;;;;;31.71;40.07;97744.03;10415790;28;20072;-61
2022/07/03 15:39:56;;;;;;;15.35;9.32;;;;;;;31.32;40.03;97737.59;10416198;28;20084;-61
2022/07/03 15:45:02;;;;;;;;;;;;;;;30.56;42.39;97751.09;10415686;28;20056;-61
2022/07/03 15:50:02;;;;;;;10.38;7.13;;;;;;;29.22;47.35;97736.78;10415571;28;19992;-61
2022/07/03 15:55:11;;;;;;;10.10;7.18;;;;;;;28.54;50.11;97749.88;10415058;28;20052;-61
2022/07/03 16:00:14;;;;;;;9.75;7.88;;;;;;;28.14;53.66;97742.13;10415677;28;20067;-61
2022/07/03 16:05:34;;;;;;;10.65;7.22;;;;;;;27.76;53.75;97739.53;10414439;28;20531;-61
2022/07/03 16:10:35;;;;;;;9.30;7.90;;;;;;;27.74;54.80;97742.31;10413806;28;20522;-60
2022/07/03 16:15:39;;;;;;;11.38;7.82;;;;;;;27.81;57.65;97746.25;10414887;28;20063;-61
2022/07/03 16:20:39;;;;;;;10.85;8.63;;;;;;;27.97;60.62;97745.16;10414076;28;20060;-61
2022/07/03 16:25:39;;;;;;;10.90;7.88;;;;;;;28.04;60.94;97741.09;10413334;28;20067;-61
2022/07/03 16:30:46;;;;;;;12.45;8.70;;;;;;;28.02;61.97;97732.34;10418602;28;20080;-61
2022/07/03 16:35:59;;;;;;;10.32;9.00;;;;;;;28.02;63.44;97745.66;10416439;28;20064;-60
2022/07/03 16:41:02;;;;;;;11.07;8.43;;;;;;;27.76;64.97;97747.53;10422128;28;20585;-61
2022/07/03 16:46:02;;;;;;;10.45;8.85;;;;;;;27.67;65.20;97746.38;10420968;28;20052;-61
2022/07/03 16:51:04;;;;;;;12.13;8.63;;;;;;;27.58;63.67;97749.69;10420071;28;20582;-61
2022/07/03 16:56:04;;;;;;;10.63;9.40;;;;;;;27.58;64.85;97763.03;10420679;28;20506;-60
2022/07/03 17:01:06;;;;;;;14.38;10.88;;;;;;;27.53;66.52;97763.34;10420645;28;20055;-60
2022/07/03 17:12:01;;;;;;;14.60;11.85;;;;;;;27.26;67.49;97754.56;10413453;28;20068;-60
2022/07/03 17:17:09;;;;;;;14.57;12.50;;;;;;;27.29;67.36;97770.34;10419408;28;20483;-60
2022/07/03 17:22:08;;;;;;;;;;;;;;;27.13;67.36;97760.75;10420618;28;20076;-60
2022/07/03 17:27:14;;;;;;;14.55;12.35;;;;;;;26.91;67.80;97766.69;10419618;28;19915;-60
2022/07/03 17:32:17;;;;;;;13.60;12.10;;;;;;;26.69;68.08;97759.22;10412821;28;20127;-61
2022/07/03 17:37:16;;;;;;;14.88;12.80;;;;;;;26.70;68.04;97762.78;10419668;28;20063;-61
2022/07/03 17:42:18;;;;;;;14.93;12.45;;;;;;;26.50;69.07;97767.56;10419056;28;20075;-61
2022/07/03 17:47:18;;;;;;;15.27;12.45;;;;;;;26.25;70.18;97770.13;10418233;28;20071;-62
2022/07/03 17:52:18;;;;;;;16.17;12.48;;;;;;;26.08;70.33;97769.38;10417308;28;20071;-61
2022/07/03 17:57:37;;;;;;;14.80;12.73;;;;;;;25.91;70.69;97753.66;10418402;28;20064;-61
2022/07/03 18:02:40;;;;;;;14.88;12.02;;;;;;;25.68;70.90;97760.41;10414415;28;20479;-60
2022/07/03 18:08:04;;;;;;;13.30;11.77;;;;;;;25.43;70.57;97759.22;10416863;28;20057;-60
2022/07/03 18:13:32;;;;;;;13.23;10.98;;;;;;;25.28;70.48;97750.41;10417883;28;20452;-59
2022/07/03 18:18:37;;;;;;;12.63;11.33;;;;;;;25.06;70.66;97750.00;10416605;28;20169;-59
2022/07/03 18:23:48;;;;;;;13.38;11.25;;;;;;;24.79;71.18;97752.44;10417862;28;20481;-60
2022/07/03 18:28:49;;;;;;;14.48;12.45;;;;;;;24.58;72.15;97763.38;10416986;28;20064;-61
2022/07/03 18:33:49;;;;;;;14.60;13.10;;;;;;;24.33;73.39;97765.72;10410061;28;20077;-59
2022/07/03 18:38:49;;;;;;;13.93;11.65;;;;;;;24.00;73.86;97769.28;10416690;28;20557;-60
2022/07/03 18:43:49;;;;;;;14.18;12.45;;;;;;;23.89;73.77;97772.53;10415659;28;20075;-60
2022/07/03 18:48:49;;;;;;;13.95;12.55;;;;;;;23.76;74.49;97787.38;10415746;28;20064;-60
2022/07/03 18:53:52;;;;;;;13.63;12.27;;;;;;;23.54;74.97;97788.53;10416121;28;20064;-60
2022/07/03 18:59:23;;;;;;;15.00;12.60;;;;;;;23.48;74.94;97793.28;10416069;28;20067;-60
2022/07/03 19:04:42;;;;;;;13.57;11.98;;;;;;;23.40;75.12;97797.16;10399016;28;20706;-60
2022/07/03 19:10:04;;;;;;;14.25;12.75;;;;;;;23.28;76.31;97794.28;10415965;28;20060;-60
2022/07/03 19:15:04;;;;;;;14.32;12.52;;;;;;;23.09;76.81;97792.59;10415875;28;20063;-60
2022/07/03 19:20:04;;;;;;;12.50;11.00;;;;;;;22.92;76.58;97806.66;10408173;28;20079;-60
2022/07/03 19:25:04;;;;;;;13.63;10.20;;;;;;;22.77;76.41;97807.44;10415629;28;20060;-60
2022/07/03 19:30:03;;;;;;;13.73;10.27;;;;;;;22.69;75.87;97807.78;10415730;28;20507;-60
2022/07/03 19:35:03;;;;;;;12.05;9.82;;;;;;;22.57;75.85;97801.31;10414977;28;20060;-60
2022/07/03 19:40:03;;;;;;;14.18;11.10;;;;;;;22.48;76.18;97801.75;10414142;28;20154;-60
2022/07/03 19:45:03;;;;;;;14.60;11.13;;;;;;;22.37;76.18;97804.94;10414899;28;20064;-61
2022/07/03 19:50:05;;;;;;;12.88;10.43;;;;;;;22.26;76.35;97809.88;10415038;28;20785;-61
2022/07/03 19:55:06;;;;;;;13.95;10.82;;;;;;;22.21;76.16;97811.88;10414856;28;20471;-61
2022/07/03 20:00:07;;;;;;;12.95;10.40;;;;;;;22.17;76.73;97808.50;10415144;28;20483;-61
2022/07/03 20:05:07;;;;;;;13.32;11.75;;;;;;;22.13;77.37;97806.06;10418760;28;20063;-61
2022/07/03 20:10:08;;;;;;;17.60;12.88;;;;;;;22.03;79.00;97799.53;10422138;28;20500;-61
2022/07/03 20:15:07;;;;;;;17.50;12.50;;;;;;;21.96;80.67;97812.97;10422686;28;20162;-61
2022/07/03 20:20:07;;;;;;;17.30;12.60;;;;;;;21.92;81.08;97821.09;10421744;28;20056;-61
2022/07/03 20:25:06;;;;;;;14.52;12.50;;;;;;;21.62;82.77;97805.75;10420474;28;20129;-61
2022/07/03 20:30:06;;;;;;;15.15;13.30;;;;;;;21.58;83.66;97813.88;10422200;28;20106;-61
2022/07/03 20:35:07;;;;;;;16.70;12.43;;;;;;;21.65;82.74;97815.31;10421385;28;20063;-61
2022/07/03 20:40:06;;;;;;;15.32;12.88;;;;;;;21.61;82.60;97813.72;10421357;28;20454;-61
2022/07/03 20:45:06;;;;;;;14.65;12.30;;;;;;;21.58;83.05;97816.50;10421972;28;20063;-61
2022/07/03 20:50:05;;;;;;;15.52;12.50;;;;;;;21.49;83.61;97821.25;10419886;28;20170;-61
2022/07/03 20:55:06;;;;;;;16.70;13.05;;;;;;;21.31;84.66;97819.41;10420970;28;20234;-61
2022/07/03 21:00:05;;;;;;;16.02;12.88;;;;;;;21.34;84.31;97819.31;10421299;28;20060;-61
2022/07/03 21:05:05;;;;;;;16.48;12.40;;;;;;;21.28;84.33;97824.84;10419440;28;20068;-61
2022/07/03 21:10:05;;;;;;;14.68;12.32;;;;;;;21.12;84.45;97825.47;10420104;28;20079;-61
2022/07/03 21:15:04;;;;;;;16.70;13.80;;;;;;;21.07;84.99;97827.44;10420634;28;20495;-61
2022/07/03 21:20:04;;;;;;;18.60;14.65;;;;;;;21.00;85.24;97823.34;10419499;28;20483;-61
2022/07/03 21:25:03;;;;;;;17.48;13.63;;;;;;;20.98;85.59;97833.09;10421786;28;20126;-61
2022/07/03 21:36:10;;;;;;;15.50;13.52;;;;;;;20.68;87.46;97822.03;10373654;28;20068;-61
2022/07/03 21:41:09;;;;;;;17.92;13.80;;;;;;;20.52;88.12;97816.53;10422734;28;20065;-61
2022/07/03 21:46:08;;;;;;;18.05;15.52;;;;;;;20.27;91.35;97811.34;10422436;28;20028;-60
2022/07/03 21:51:08;;;;;;;17.65;15.25;;;;;;;20.06;93.36;97818.28;10422416;28;20071;-61
2022/07/03 21:56:07;;;;;;;18.42;15.55;;;;;;;20.02;93.11;97806.16;10422198;28;20025;-60
2022/07/03 22:01:06;;;;;;;20.38;15.02;;;;;;;19.99;93.38;97795.75;10421498;28;20028;-60
2022/07/03 22:06:05;;;;;;;17.90;14.98;;;;;;;20.05;92.36;97780.56;10421199;28;20063;-60
2022/07/03 22:11:04;;;;;;;20.23;14.88;;;;;;;20.02;93.29;97780.66;10420881;28;20028;-61
2022/07/03 22:16:04;;;;;;;18.23;14.80;;;;;;;20.12;92.70;97781.19;10418914;28;20020;-61
2022/07/03 22:21:03;;;;;;;14.93;13.02;;;;;;;20.22;91.24;97782.53;10419775;28;20056;-61
2022/07/03 22:26:02;;;;;;;16.50;12.35;;;;;;;20.37;89.34;97785.47;10416471;28;20060;-60
2022/07/03 22:36:19;;;;;;;13.38;11.50;;;;;;;20.42;86.48;97791.44;10417395;28;20060;-61
2022/07/03 22:41:18;;;;;;;13.35;10.65;;;;;;;20.49;85.51;97779.72;10416324;28;20032;-60
2022/07/03 22:46:17;;;;;;;15.38;12.30;;;;;;;20.66;85.06;97802.78;10416714;28;20036;-61
2022/07/03 22:51:16;;;;;;;14.18;11.63;;;;;;;20.62;84.73;97780.97;10417076;28;20129;-61
2022/07/03 22:56:15;;;;;;;14.55;11.50;;;;;;;20.65;83.85;97788.72;10416096;28;20112;-61
2022/07/03 23:01:14;;;;;;;13.70;10.45;;;;;;;20.67;83.39;97784.25;10416112;28;20111;-60
2022/07/03 23:06:13;;;;;;;13.32;11.73;;;;;;;20.66;82.31;97787.81;10416329;28;20533;-60
2022/07/03 23:11:12;;;;;;;11.70;9.10;;;;;;;20.64;80.97;97780.91;10414718;28;20133;-61
2022/07/03 23:16:11;;;;;;;10.07;8.93;;;;;;;20.67;79.33;97783.41;10415766;28;20028;-61
2022/07/03 23:21:10;;;;;;;11.32;8.32;;;;;;;20.78;77.62;97793.53;10416234;28;20056;-61
2022/07/03 23:26:09;;;;;;;10.75;8.70;;;;;;;20.81;76.60;97790.75;10416082;28;20044;-61
2022/07/03 23:31:08;;;;;;;11.40;8.65;;;;;;;20.84;75.59;97783.53;10415417;28;20060;-61
2022/07/03 23:36:07;;;;;;;11.02;8.15;;;;;;;20.83;74.21;97781.00;10415815;28;20071;-62
2022/07/03 23:41:05;;;;;;;12.82;9.38;;;;;;;20.86;74.07;97788.75;10422486;28;20299;-61
2022/07/03 23:46:04;;;;;;;12.48;9.43;;;;;;;20.87;75.20;97782.59;10423661;28;20033;-61
2022/07/03 23:51:03;;;;;;;9.95;7.25;;;;;;;20.77;74.34;97775.97;10423690;28;20116;-61
2022/07/03 23:56:03;;;;;;;12.57;9.00;;;;;;;20.70;74.57;97784.16;10423339;28;20067;-61
